createdAt,value
2022-11-25T00:00:26.370Z,1007.05
2022-11-25T00:01:26.364Z,1007.06
2022-11-25T00:02:26.540Z,1007.06
2022-11-25T00:03:26.378Z,1007.06
2022-11-25T00:04:26.451Z,1007.06
2022-11-25T00:05:26.318Z,1007.05
2022-11-25T00:06:26.311Z,1007.06
2022-11-25T00:07:26.353Z,1007.06
2022-11-25T00:08:26.280Z,1007.07
2022-11-25T00:09:26.301Z,1007.09
2022-11-25T00:10:26.303Z,1007.10
2022-11-25T00:11:26.254Z,1007.11
2022-11-25T00:12:26.367Z,1007.13
2022-11-25T00:13:26.250Z,1007.14
2022-11-25T00:14:26.217Z,1007.15
2022-11-25T00:15:26.209Z,1007.15
2022-11-25T00:16:26.303Z,1007.14
2022-11-25T00:17:26.194Z,1007.12
2022-11-25T00:18:26.173Z,1007.11
2022-11-25T00:19:26.184Z,1007.10
2022-11-25T00:20:26.155Z,1007.08
2022-11-25T00:21:26.142Z,1007.08
2022-11-25T00:22:26.267Z,1007.07
2022-11-25T00:23:30.470Z,1007.05
2022-11-25T00:24:26.119Z,1007.03
2022-11-25T00:25:26.103Z,1007.02
2022-11-25T00:26:26.095Z,1007.01
2022-11-25T00:27:26.092Z,1007.01
2022-11-25T00:28:26.087Z,1007.02
2022-11-25T00:29:26.062Z,1007.03
2022-11-25T00:30:26.047Z,1007.06
2022-11-25T00:31:26.093Z,1007.08
2022-11-25T00:32:26.027Z,1007.11
2022-11-25T00:33:26.028Z,1007.13
2022-11-25T00:34:26.165Z,1007.16
2022-11-25T00:35:26.004Z,1007.18
2022-11-25T00:36:26.001Z,1007.21
2022-11-25T00:37:25.975Z,1007.22
2022-11-25T00:38:25.968Z,1007.23
2022-11-25T00:39:25.953Z,1007.24
2022-11-25T00:40:26.090Z,1007.25
2022-11-25T00:41:25.943Z,1007.26
2022-11-25T00:42:25.921Z,1007.26
2022-11-25T00:43:25.925Z,1007.27
2022-11-25T00:44:25.903Z,1007.29
2022-11-25T00:45:25.907Z,1007.30
2022-11-25T00:46:25.894Z,1007.32
2022-11-25T00:47:25.872Z,1007.32
2022-11-25T00:48:25.855Z,1007.32
2022-11-25T00:49:25.851Z,1007.32
2022-11-25T00:50:25.842Z,1007.32
2022-11-25T00:51:25.836Z,1007.32
2022-11-25T00:52:25.856Z,1007.33
2022-11-25T00:53:25.811Z,1007.33
2022-11-25T00:54:25.801Z,1007.34
2022-11-25T00:55:25.824Z,1007.34
2022-11-25T00:56:25.805Z,1007.34
2022-11-25T00:57:25.767Z,1007.34
2022-11-25T00:58:25.943Z,1007.35
2022-11-25T00:59:25.747Z,1007.34
2022-11-25T01:00:25.730Z,1007.35
2022-11-25T01:01:25.825Z,1007.34
2022-11-25T01:02:25.732Z,1007.35
2022-11-25T01:03:25.700Z,1007.35
2022-11-25T01:04:25.821Z,1007.36
2022-11-25T01:05:25.683Z,1007.37
2022-11-25T01:06:25.669Z,1007.38
2022-11-25T01:07:25.749Z,1007.37
2022-11-25T01:08:25.649Z,1007.37
2022-11-25T01:09:25.640Z,1007.36
2022-11-25T01:10:25.880Z,1007.36
2022-11-25T01:11:25.616Z,1007.35
2022-11-25T01:12:25.603Z,1007.34
2022-11-25T01:13:25.609Z,1007.34
2022-11-25T01:14:25.598Z,1007.33
2022-11-25T01:15:25.578Z,1007.34
2022-11-25T01:16:25.635Z,1007.33
2022-11-25T01:17:25.553Z,1007.32
2022-11-25T01:18:25.542Z,1007.31
2022-11-25T01:19:25.535Z,1007.31
2022-11-25T01:20:25.520Z,1007.31
2022-11-25T01:21:25.513Z,1007.32
2022-11-25T01:22:25.661Z,1007.33
2022-11-25T01:23:25.492Z,1007.32
2022-11-25T01:24:25.474Z,1007.32
2022-11-25T01:25:25.475Z,1007.32
2022-11-25T01:26:25.456Z,1007.32
2022-11-25T01:27:25.444Z,1007.30
2022-11-25T01:28:25.595Z,1007.30
2022-11-25T01:29:25.456Z,1007.28
2022-11-25T01:30:25.421Z,1007.27
2022-11-25T01:31:25.472Z,1007.25
2022-11-25T01:32:25.403Z,1007.25
2022-11-25T01:33:25.389Z,1007.25
2022-11-25T01:34:25.403Z,1007.25
2022-11-25T01:35:25.366Z,1007.25
2022-11-25T01:36:25.356Z,1007.26
2022-11-25T01:37:25.341Z,1007.27
2022-11-25T01:38:25.339Z,1007.28
2022-11-25T01:39:31.660Z,1007.30
2022-11-25T01:40:25.441Z,1007.30
2022-11-25T01:41:25.306Z,1007.30
2022-11-25T01:42:25.327Z,1007.31
2022-11-25T01:43:25.283Z,1007.31
2022-11-25T01:44:25.272Z,1007.31
2022-11-25T01:45:28.527Z,1007.30
2022-11-25T01:46:25.417Z,1007.30
2022-11-25T01:47:25.241Z,1007.30
2022-11-25T01:48:25.234Z,1007.31
2022-11-25T01:49:25.223Z,1007.31
2022-11-25T01:50:25.200Z,1007.30
2022-11-25T01:51:25.197Z,1007.32
2022-11-25T01:52:25.309Z,1007.33
2022-11-25T01:53:25.175Z,1007.34
2022-11-25T01:54:25.161Z,1007.35
2022-11-25T01:55:25.151Z,1007.35
2022-11-25T01:56:25.142Z,1007.34
2022-11-25T01:57:25.134Z,1007.31
2022-11-25T01:58:25.278Z,1007.29
2022-11-25T01:59:25.115Z,1007.28
2022-11-25T02:00:25.098Z,1007.26
2022-11-25T02:01:25.144Z,1007.25
2022-11-25T02:02:25.140Z,1007.25
2022-11-25T02:03:25.065Z,1007.25
2022-11-25T02:04:25.085Z,1007.25
2022-11-25T02:05:28.411Z,1007.25
2022-11-25T02:06:25.047Z,1007.25
2022-11-25T02:07:25.114Z,1007.26
2022-11-25T02:08:25.014Z,1007.27
2022-11-25T02:09:25.023Z,1007.26
2022-11-25T02:10:25.118Z,1007.26
2022-11-25T02:11:24.983Z,1007.26
2022-11-25T02:12:24.968Z,1007.26
2022-11-25T02:13:24.967Z,1007.26
2022-11-25T02:14:24.958Z,1007.25
2022-11-25T02:15:24.958Z,1007.24
2022-11-25T02:16:25.004Z,1007.23
2022-11-25T02:17:24.918Z,1007.23
2022-11-25T02:18:24.914Z,1007.22
2022-11-25T02:19:24.899Z,1007.22
2022-11-25T02:20:24.883Z,1007.22
2022-11-25T02:21:24.890Z,1007.22
2022-11-25T02:22:24.899Z,1007.23
2022-11-25T02:23:24.868Z,1007.24
2022-11-25T02:24:24.838Z,1007.25
2022-11-25T02:25:24.841Z,1007.25
2022-11-25T02:26:24.822Z,1007.25
2022-11-25T02:27:24.813Z,1007.25
2022-11-25T02:28:24.941Z,1007.25
2022-11-25T02:29:24.799Z,1007.26
2022-11-25T02:30:24.785Z,1007.27
2022-11-25T02:31:24.827Z,1007.28
2022-11-25T02:32:24.767Z,1007.30
2022-11-25T02:33:24.756Z,1007.32
2022-11-25T02:34:24.757Z,1007.33
2022-11-25T02:35:24.730Z,1007.34
2022-11-25T02:36:24.716Z,1007.34
2022-11-25T02:37:24.712Z,1007.34
2022-11-25T02:38:24.698Z,1007.33
2022-11-25T02:39:24.691Z,1007.32
2022-11-25T02:40:24.811Z,1007.31
2022-11-25T02:41:24.665Z,1007.31
2022-11-25T02:42:24.654Z,1007.32
2022-11-25T02:43:24.649Z,1007.33
2022-11-25T02:44:24.642Z,1007.34
2022-11-25T02:45:24.686Z,1007.35
2022-11-25T02:46:24.784Z,1007.37
2022-11-25T02:47:24.610Z,1007.38
2022-11-25T02:48:45.773Z,1007.39
2022-11-25T02:49:24.585Z,1007.40
2022-11-25T02:50:24.574Z,1007.40
2022-11-25T02:51:24.567Z,1007.38
2022-11-25T02:52:24.698Z,1007.38
2022-11-25T02:53:24.541Z,1007.37
2022-11-25T02:54:24.525Z,1007.37
2022-11-25T02:55:24.528Z,1007.36
2022-11-25T02:56:24.514Z,1007.36
2022-11-25T02:57:24.494Z,1007.36
2022-11-25T02:58:24.631Z,1007.36
2022-11-25T02:59:24.472Z,1007.36
2022-11-25T03:00:24.472Z,1007.35
2022-11-25T03:01:24.567Z,1007.35
2022-11-25T03:02:24.490Z,1007.34
2022-11-25T03:03:24.425Z,1007.33
2022-11-25T03:04:24.562Z,1007.33
2022-11-25T03:05:24.409Z,1007.33
2022-11-25T03:06:24.410Z,1007.33
2022-11-25T03:07:24.486Z,1007.33
2022-11-25T03:08:24.412Z,1007.33
2022-11-25T03:09:24.366Z,1007.32
2022-11-25T03:10:24.491Z,1007.32
2022-11-25T03:11:24.351Z,1007.32
2022-11-25T03:12:24.336Z,1007.31
2022-11-25T03:13:24.331Z,1007.30
2022-11-25T03:14:24.322Z,1007.29
2022-11-25T03:15:24.319Z,1007.28
2022-11-25T03:16:24.572Z,1007.27
2022-11-25T03:17:24.280Z,1007.26
2022-11-25T03:18:24.272Z,1007.25
2022-11-25T03:19:24.257Z,1007.24
2022-11-25T03:20:24.256Z,1007.24
2022-11-25T03:21:24.248Z,1007.23
2022-11-25T03:22:24.486Z,1007.23
2022-11-25T03:23:24.248Z,1007.24
2022-11-25T03:24:24.209Z,1007.22
2022-11-25T03:25:24.196Z,1007.22
2022-11-25T03:26:24.209Z,1007.21
2022-11-25T03:27:26.160Z,1007.23
2022-11-25T03:28:24.202Z,1007.21
2022-11-25T03:29:24.155Z,1007.21
2022-11-25T03:30:24.155Z,1007.19
2022-11-25T03:31:24.173Z,1007.19
2022-11-25T03:32:24.126Z,1007.19
2022-11-25T03:33:24.112Z,1007.19
2022-11-25T03:34:24.259Z,1007.18
2022-11-25T03:35:24.104Z,1007.18
2022-11-25T03:36:24.084Z,1007.18
2022-11-25T03:37:24.139Z,1007.19
2022-11-25T03:38:24.083Z,1007.20
2022-11-25T03:39:24.070Z,1007.18
2022-11-25T03:40:24.196Z,1007.18
2022-11-25T03:41:24.024Z,1007.18
2022-11-25T03:42:24.032Z,1007.18
2022-11-25T03:43:24.011Z,1007.17
2022-11-25T03:44:24.000Z,1007.19
2022-11-25T03:45:23.994Z,1007.21
2022-11-25T03:46:24.207Z,1007.22
2022-11-25T03:47:23.966Z,1007.23
2022-11-25T03:48:23.956Z,1007.26
2022-11-25T03:49:23.944Z,1007.27
2022-11-25T03:50:23.945Z,1007.29
2022-11-25T03:51:23.924Z,1007.29
2022-11-25T03:52:23.982Z,1007.29
2022-11-25T03:53:23.905Z,1007.28
2022-11-25T03:54:23.898Z,1007.26
2022-11-25T03:55:23.887Z,1007.26
2022-11-25T03:56:23.872Z,1007.26
2022-11-25T03:57:23.854Z,1007.25
2022-11-25T03:58:23.878Z,1007.24
2022-11-25T03:59:23.839Z,1007.23
2022-11-25T04:00:23.838Z,1007.23
2022-11-25T04:01:23.891Z,1007.23
2022-11-25T04:02:23.850Z,1007.25
2022-11-25T04:03:23.796Z,1007.24
2022-11-25T04:04:23.920Z,1007.25
2022-11-25T04:05:23.773Z,1007.25
2022-11-25T04:06:23.768Z,1007.26
2022-11-25T04:07:23.818Z,1007.26
2022-11-25T04:08:23.746Z,1007.28
2022-11-25T04:09:23.730Z,1007.29
2022-11-25T04:10:23.761Z,1007.30
2022-11-25T04:11:23.712Z,1007.31
2022-11-25T04:12:23.709Z,1007.33
2022-11-25T04:13:23.691Z,1007.35
2022-11-25T04:14:23.697Z,1007.36
2022-11-25T04:15:23.685Z,1007.38
2022-11-25T04:16:23.827Z,1007.40
2022-11-25T04:17:23.643Z,1007.41
2022-11-25T04:18:23.637Z,1007.43
2022-11-25T04:19:23.626Z,1007.44
2022-11-25T04:20:23.621Z,1007.46
2022-11-25T04:21:23.603Z,1007.47
2022-11-25T04:22:23.656Z,1007.47
2022-11-25T04:23:23.587Z,1007.47
2022-11-25T04:24:23.583Z,1007.48
2022-11-25T04:25:23.565Z,1007.49
2022-11-25T04:26:23.560Z,1007.49
2022-11-25T04:27:23.541Z,1007.49
2022-11-25T04:28:23.664Z,1007.50
2022-11-25T04:29:23.521Z,1007.50
2022-11-25T04:30:23.513Z,1007.50
2022-11-25T04:31:23.500Z,1007.50
2022-11-25T04:32:23.500Z,1007.50
2022-11-25T04:33:23.479Z,1007.49
2022-11-25T04:34:23.615Z,1007.49
2022-11-25T04:35:23.453Z,1007.50
2022-11-25T04:36:23.457Z,1007.50
2022-11-25T04:37:23.436Z,1007.51
2022-11-25T04:38:23.431Z,1007.52
2022-11-25T04:39:23.421Z,1007.53
2022-11-25T04:40:23.538Z,1007.52
2022-11-25T04:41:23.389Z,1007.53
2022-11-25T04:42:23.393Z,1007.52
2022-11-25T04:43:23.369Z,1007.51
2022-11-25T04:44:23.359Z,1007.51
2022-11-25T04:45:24.221Z,1007.50
2022-11-25T04:46:23.449Z,1007.50
2022-11-25T04:47:23.331Z,1007.50
2022-11-25T04:48:23.326Z,1007.51
2022-11-25T04:49:23.319Z,1007.54
2022-11-25T04:50:23.305Z,1007.55
2022-11-25T04:51:23.282Z,1007.55
2022-11-25T04:52:23.322Z,1007.55
2022-11-25T04:53:23.263Z,1007.55
2022-11-25T04:54:23.258Z,1007.56
2022-11-25T04:55:23.242Z,1007.57
2022-11-25T04:56:23.241Z,1007.57
2022-11-25T04:57:23.223Z,1007.59
2022-11-25T04:58:23.349Z,1007.61
2022-11-25T04:59:23.200Z,1007.63
2022-11-25T05:00:23.195Z,1007.62
2022-11-25T05:01:23.280Z,1007.62
2022-11-25T05:02:23.209Z,1007.61
2022-11-25T05:03:23.170Z,1007.63
2022-11-25T05:04:23.288Z,1007.65
2022-11-25T05:05:23.142Z,1007.66
2022-11-25T05:06:23.133Z,1007.67
2022-11-25T05:07:23.153Z,1007.69
2022-11-25T05:08:23.121Z,1007.71
2022-11-25T05:09:23.094Z,1007.71
2022-11-25T05:10:23.134Z,1007.71
2022-11-25T05:11:23.078Z,1007.71
2022-11-25T05:12:23.075Z,1007.71
2022-11-25T05:13:23.202Z,1007.73
2022-11-25T05:14:23.041Z,1007.75
2022-11-25T05:15:23.047Z,1007.77
2022-11-25T05:16:23.200Z,1007.77
2022-11-25T05:17:23.079Z,1007.76
2022-11-25T05:18:23.022Z,1007.74
2022-11-25T05:19:22.993Z,1007.74
2022-11-25T05:20:22.989Z,1007.76
2022-11-25T05:21:22.965Z,1007.76
2022-11-25T05:22:23.112Z,1007.78
2022-11-25T05:23:22.944Z,1007.77
2022-11-25T05:24:22.944Z,1007.75
2022-11-25T05:25:22.957Z,1007.75
2022-11-25T05:26:22.922Z,1007.72
2022-11-25T05:27:22.905Z,1007.72
2022-11-25T05:28:23.148Z,1007.72
2022-11-25T05:29:22.892Z,1007.73
2022-11-25T05:30:22.873Z,1007.74
2022-11-25T05:31:22.949Z,1007.76
2022-11-25T05:32:22.858Z,1007.78
2022-11-25T05:33:22.850Z,1007.78
2022-11-25T05:34:22.967Z,1007.78
2022-11-25T05:35:33.274Z,1007.77
2022-11-25T05:36:34.254Z,1007.77
2022-11-25T05:37:34.244Z,1007.79
2022-11-25T05:38:35.104Z,1007.79
2022-11-25T05:39:34.541Z,1007.80
2022-11-25T05:40:34.218Z,1007.80
2022-11-25T05:41:34.206Z,1007.81
2022-11-25T05:42:34.946Z,1007.83
2022-11-25T05:43:34.188Z,1007.83
2022-11-25T05:44:34.181Z,1007.83
2022-11-25T05:45:34.312Z,1007.84
2022-11-25T05:46:34.209Z,1007.84
2022-11-25T05:47:34.149Z,1007.82
2022-11-25T05:48:34.133Z,1007.83
2022-11-25T05:49:34.126Z,1007.82
2022-11-25T05:50:34.161Z,1007.83
2022-11-25T05:51:34.135Z,1007.85
2022-11-25T05:52:34.179Z,1007.86
2022-11-25T05:53:34.077Z,1007.86
2022-11-25T05:54:34.425Z,1007.88
2022-11-25T05:55:34.061Z,1007.89
2022-11-25T05:56:34.052Z,1007.91
2022-11-25T05:57:34.258Z,1007.90
2022-11-25T05:58:34.029Z,1007.94
2022-11-25T05:59:34.028Z,1007.95
2022-11-25T06:00:34.007Z,1007.94
2022-11-25T06:01:34.008Z,1007.96
2022-11-25T06:02:34.093Z,1007.97
2022-11-25T06:03:34.037Z,1007.99
2022-11-25T06:04:34.321Z,1007.97
2022-11-25T06:05:33.952Z,1007.99
2022-11-25T06:06:34.129Z,1008.00
2022-11-25T06:07:33.941Z,1008.01
2022-11-25T06:08:33.951Z,1008.02
2022-11-25T06:09:34.056Z,1008.04
2022-11-25T06:10:33.950Z,1008.05
2022-11-25T06:11:33.887Z,1008.07
2022-11-25T06:12:33.967Z,1008.09
2022-11-25T06:13:33.879Z,1008.10
2022-11-25T06:14:34.141Z,1008.09
2022-11-25T06:15:34.012Z,1008.10
2022-11-25T06:16:33.898Z,1008.09
2022-11-25T06:17:33.877Z,1008.10
2022-11-25T06:18:33.854Z,1008.10
2022-11-25T06:19:33.817Z,1008.11
2022-11-25T06:20:33.806Z,1008.13
2022-11-25T06:21:33.805Z,1008.15
2022-11-25T06:22:33.770Z,1008.14
2022-11-25T06:23:33.783Z,1008.14
2022-11-25T06:24:33.890Z,1008.13
2022-11-25T06:25:33.746Z,1008.16
2022-11-25T06:26:33.735Z,1008.16
2022-11-25T06:27:56.795Z,1008.16
2022-11-25T06:28:33.716Z,1008.16
2022-11-25T06:29:33.699Z,1008.16
2022-11-25T06:30:33.686Z,1008.15
2022-11-25T06:31:33.827Z,1008.15
2022-11-25T06:32:37.389Z,1008.16
2022-11-25T06:33:34.006Z,1008.17
2022-11-25T06:34:34.054Z,1008.17
2022-11-25T06:35:33.636Z,1008.18
2022-11-25T06:36:33.624Z,1008.20
2022-11-25T06:37:33.664Z,1008.21
2022-11-25T06:38:33.601Z,1008.21
2022-11-25T06:39:33.689Z,1008.23
2022-11-25T06:40:33.584Z,1008.25
2022-11-25T06:41:33.568Z,1008.27
2022-11-25T06:42:33.565Z,1008.27
2022-11-25T06:43:34.090Z,1008.29
2022-11-25T06:44:33.671Z,1008.31
2022-11-25T06:45:33.553Z,1008.34
2022-11-25T06:46:33.572Z,1008.37
2022-11-25T06:47:33.510Z,1008.38
2022-11-25T06:48:33.505Z,1008.40
2022-11-25T06:49:33.482Z,1008.40
2022-11-25T06:50:33.536Z,1008.41
2022-11-25T06:51:33.508Z,1008.43
2022-11-25T06:52:33.869Z,1008.45
2022-11-25T06:53:33.442Z,1008.46
2022-11-25T06:54:33.616Z,1008.47
2022-11-25T06:55:33.425Z,1008.49
2022-11-25T06:56:33.414Z,1008.50
2022-11-25T06:57:33.539Z,1008.50
2022-11-25T06:58:36.398Z,1008.49
2022-11-25T06:59:33.665Z,1008.50
2022-11-25T07:00:34.252Z,1008.51
2022-11-25T07:01:33.416Z,1008.49
2022-11-25T07:02:40.744Z,1008.48
2022-11-25T07:03:33.475Z,1008.48
2022-11-25T07:04:33.478Z,1008.47
2022-11-25T07:05:33.325Z,1008.45
2022-11-25T07:06:33.330Z,1008.46
2022-11-25T07:07:33.364Z,1008.46
2022-11-25T07:08:34.412Z,1008.48
2022-11-25T07:09:33.329Z,1008.48
2022-11-25T07:10:33.298Z,1008.49
2022-11-25T07:11:33.254Z,1008.49
2022-11-25T07:12:33.258Z,1008.50
2022-11-25T07:13:33.521Z,1008.49
2022-11-25T07:14:34.521Z,1008.49
2022-11-25T07:15:34.996Z,1008.51
2022-11-25T07:16:34.927Z,1008.52
2022-11-25T07:17:33.951Z,1008.51
2022-11-25T07:18:37.428Z,1008.52
2022-11-25T07:19:34.015Z,1008.54
2022-11-25T07:20:33.846Z,1008.56
2022-11-25T07:21:35.810Z,1008.56
2022-11-25T07:22:34.602Z,1008.57
2022-11-25T07:23:34.652Z,1008.58
2022-11-25T07:24:34.214Z,1008.59
2022-11-25T07:25:33.417Z,1008.62
2022-11-25T07:26:34.167Z,1008.62
2022-11-25T07:27:33.864Z,1008.63
2022-11-25T07:28:34.081Z,1008.65
2022-11-25T07:30:10.333Z,1008.64
2022-11-25T07:31:22.099Z,1008.63
2022-11-25T07:31:34.569Z,1008.62
2022-11-25T07:32:33.726Z,1008.62
2022-11-25T07:33:33.838Z,1008.63
2022-11-25T07:34:33.585Z,1008.62
2022-11-25T07:35:33.381Z,1008.62
2022-11-25T07:36:34.266Z,1008.63
2022-11-25T07:37:33.754Z,1008.63
2022-11-25T07:38:33.299Z,1008.63
2022-11-25T07:39:34.438Z,1008.66
2022-11-25T07:40:33.243Z,1008.68
2022-11-25T07:41:32.975Z,1008.70
2022-11-25T07:42:32.943Z,1008.71
2022-11-25T07:43:33.117Z,1008.73
2022-11-25T07:44:32.890Z,1008.73
2022-11-25T07:45:33.162Z,1008.73
2022-11-25T07:46:33.031Z,1008.76
2022-11-25T07:47:32.973Z,1008.77
2022-11-25T07:48:33.017Z,1008.77
2022-11-25T07:49:32.923Z,1008.78
2022-11-25T07:50:32.861Z,1008.79
2022-11-25T07:51:33.239Z,1008.78
2022-11-25T07:52:33.409Z,1008.78
2022-11-25T07:53:32.914Z,1008.76
2022-11-25T07:54:33.092Z,1008.76
2022-11-25T07:55:32.840Z,1008.76
2022-11-25T07:56:32.904Z,1008.78
2022-11-25T07:57:33.012Z,1008.77
2022-11-25T07:58:32.855Z,1008.77
2022-11-25T07:59:32.943Z,1008.78
2022-11-25T08:00:32.681Z,1008.79
2022-11-25T08:01:32.693Z,1008.78
2022-11-25T08:02:32.764Z,1008.78
2022-11-25T08:03:32.843Z,1008.76
2022-11-25T08:04:32.701Z,1008.74
2022-11-25T08:05:32.679Z,1008.73
2022-11-25T08:06:32.677Z,1008.72
2022-11-25T08:07:36.479Z,1008.71
2022-11-25T08:08:32.657Z,1008.71
2022-11-25T08:09:32.666Z,1008.72
2022-11-25T08:10:32.638Z,1008.73
2022-11-25T08:11:32.621Z,1008.75
2022-11-25T08:12:32.616Z,1008.77
2022-11-25T08:13:32.609Z,1008.77
2022-11-25T08:14:32.596Z,1008.77
2022-11-25T08:15:32.669Z,1008.78
2022-11-25T08:16:32.624Z,1008.80
2022-11-25T08:17:32.557Z,1008.81
2022-11-25T08:18:32.547Z,1008.80
2022-11-25T08:19:32.534Z,1008.79
2022-11-25T08:20:32.526Z,1008.76
2022-11-25T08:21:32.551Z,1008.75
2022-11-25T08:22:32.516Z,1008.73
2022-11-25T08:23:32.502Z,1008.73
2022-11-25T08:24:32.496Z,1008.73
2022-11-25T08:25:32.471Z,1008.73
2022-11-25T08:26:32.469Z,1008.76
2022-11-25T08:27:32.607Z,1008.78
2022-11-25T08:28:32.455Z,1008.81
2022-11-25T08:29:32.432Z,1008.83
2022-11-25T08:30:32.425Z,1008.84
2022-11-25T08:31:32.451Z,1008.84
2022-11-25T08:32:32.403Z,1008.84
2022-11-25T08:33:32.558Z,1008.83
2022-11-25T08:34:32.381Z,1008.82
2022-11-25T08:35:32.374Z,1008.81
2022-11-25T08:36:32.366Z,1008.81
2022-11-25T08:37:32.347Z,1008.81
2022-11-25T08:38:32.347Z,1008.82
2022-11-25T08:40:32.283Z,1008.85
2022-11-25T08:41:32.301Z,1008.89
2022-11-25T08:42:32.306Z,1008.88
2022-11-25T08:43:32.294Z,1008.92
2022-11-25T08:44:32.318Z,1008.93
2022-11-25T08:45:32.325Z,1008.95
2022-11-25T08:46:32.334Z,1008.97
2022-11-25T08:47:32.269Z,1008.99
2022-11-25T08:48:32.261Z,1009.01
2022-11-25T08:49:37.517Z,1009.01
2022-11-25T08:50:32.218Z,1009.00
2022-11-25T08:51:32.326Z,1009.00
2022-11-25T08:52:32.200Z,1008.99
2022-11-25T08:53:32.230Z,1008.99
2022-11-25T08:54:32.177Z,1008.99
2022-11-25T08:55:32.161Z,1008.99
2022-11-25T08:56:32.150Z,1009.00
2022-11-25T08:57:32.163Z,1009.00
2022-11-25T08:58:32.130Z,1009.00
2022-11-25T08:59:32.122Z,1009.01
2022-11-25T09:00:32.110Z,1009.00
2022-11-25T09:01:32.222Z,1008.99
2022-11-25T09:02:32.134Z,1008.99
2022-11-25T09:03:32.216Z,1009.00
2022-11-25T09:04:32.069Z,1009.00
2022-11-25T09:05:32.073Z,1008.99
2022-11-25T09:06:32.049Z,1008.99
2022-11-25T09:07:32.071Z,1008.98
2022-11-25T09:08:32.086Z,1008.98
2022-11-25T09:09:32.189Z,1008.98
2022-11-25T09:10:32.003Z,1008.98
2022-11-25T09:11:32.044Z,1008.99
2022-11-25T09:12:31.989Z,1009.00
2022-11-25T09:13:32.033Z,1009.00
2022-11-25T09:14:31.965Z,1008.99
2022-11-25T09:15:32.102Z,1008.99
2022-11-25T09:16:32.035Z,1008.99
2022-11-25T09:17:31.986Z,1008.98
2022-11-25T09:18:31.922Z,1008.97
2022-11-25T09:19:31.903Z,1008.97
2022-11-25T09:20:31.903Z,1008.96
2022-11-25T09:21:32.028Z,1008.95
2022-11-25T09:22:31.884Z,1008.94
2022-11-25T09:23:31.867Z,1008.93
2022-11-25T09:24:31.866Z,1008.95
2022-11-25T09:25:31.847Z,1008.95
2022-11-25T09:26:31.835Z,1008.96
2022-11-25T09:27:31.952Z,1008.96
2022-11-25T09:28:31.813Z,1008.99
2022-11-25T09:29:31.802Z,1009.00
2022-11-25T09:30:31.797Z,1009.00
2022-11-25T09:31:31.928Z,1009.02
2022-11-25T09:32:31.778Z,1009.03
2022-11-25T09:33:31.890Z,1009.02
2022-11-25T09:34:31.755Z,1009.06
2022-11-25T09:35:31.747Z,1009.05
2022-11-25T09:36:31.733Z,1009.07
2022-11-25T09:37:31.674Z,1009.07
2022-11-25T09:38:31.712Z,1009.08
2022-11-25T09:39:31.728Z,1009.09
2022-11-25T09:40:31.687Z,1009.12
2022-11-25T09:41:31.616Z,1009.13
2022-11-25T09:42:31.664Z,1009.13
2022-11-25T09:43:31.653Z,1009.13
2022-11-25T09:44:31.647Z,1009.13
2022-11-25T09:45:31.898Z,1009.13
2022-11-25T09:46:31.669Z,1009.13
2022-11-25T09:47:31.612Z,1009.16
2022-11-25T09:48:31.604Z,1009.17
2022-11-25T09:49:31.584Z,1009.19
2022-11-25T09:50:31.586Z,1009.22
2022-11-25T09:51:31.712Z,1009.23
2022-11-25T09:52:31.560Z,1009.24
2022-11-25T09:53:31.554Z,1009.26
2022-11-25T09:54:31.541Z,1009.28
2022-11-25T09:55:31.538Z,1009.28
2022-11-25T09:56:31.519Z,1009.28
2022-11-25T09:57:31.651Z,1009.27
2022-11-25T09:58:31.491Z,1009.27
2022-11-25T09:59:31.482Z,1009.27
2022-11-25T10:00:31.478Z,1009.25
2022-11-25T10:01:31.407Z,1009.25
2022-11-25T10:02:31.586Z,1009.24
2022-11-25T10:03:31.648Z,1009.24
2022-11-25T10:04:31.433Z,1009.25
2022-11-25T10:05:31.431Z,1009.25
2022-11-25T10:06:31.455Z,1009.27
2022-11-25T10:07:31.401Z,1009.28
2022-11-25T10:08:31.393Z,1009.31
2022-11-25T10:09:31.532Z,1009.31
2022-11-25T10:10:31.370Z,1009.32
2022-11-25T10:11:31.360Z,1009.32
2022-11-25T10:12:31.342Z,1009.32
2022-11-25T10:13:31.341Z,1009.32
2022-11-25T10:14:31.334Z,1009.31
2022-11-25T10:15:31.416Z,1009.30
2022-11-25T10:16:31.341Z,1009.31
2022-11-25T10:17:31.293Z,1009.31
2022-11-25T10:18:31.284Z,1009.31
2022-11-25T10:19:31.280Z,1009.32
2022-11-25T10:20:31.261Z,1009.32
2022-11-25T10:21:31.394Z,1009.33
2022-11-25T10:22:31.236Z,1009.34
2022-11-25T10:23:31.233Z,1009.36
2022-11-25T10:24:31.226Z,1009.37
2022-11-25T10:25:31.215Z,1009.38
2022-11-25T10:26:31.191Z,1009.38
2022-11-25T10:27:31.341Z,1009.38
2022-11-25T10:28:31.172Z,1009.38
2022-11-25T10:29:31.172Z,1009.38
2022-11-25T10:30:31.159Z,1009.39
2022-11-25T10:31:31.178Z,1009.40
2022-11-25T10:32:31.158Z,1009.38
2022-11-25T10:33:31.133Z,1009.38
2022-11-25T10:34:31.127Z,1009.39
2022-11-25T10:35:31.119Z,1009.38
2022-11-25T10:36:31.107Z,1009.38
2022-11-25T10:37:31.096Z,1009.37
2022-11-25T10:38:31.073Z,1009.35
2022-11-25T10:39:31.204Z,1009.34
2022-11-25T10:40:31.045Z,1009.34
2022-11-25T10:41:31.043Z,1009.34
2022-11-25T10:42:31.023Z,1009.34
2022-11-25T10:43:32.015Z,1009.33
2022-11-25T10:44:31.008Z,1009.32
2022-11-25T10:45:31.027Z,1009.32
2022-11-25T10:46:57.085Z,1009.32
2022-11-25T10:47:31.097Z,1009.33
2022-11-25T10:48:30.967Z,1009.32
2022-11-25T10:49:30.958Z,1009.32
2022-11-25T10:50:30.959Z,1009.33
2022-11-25T10:51:31.074Z,1009.33
2022-11-25T10:52:30.920Z,1009.32
2022-11-25T10:53:30.928Z,1009.33
2022-11-25T10:54:30.899Z,1009.32
2022-11-25T10:55:30.920Z,1009.33
2022-11-25T10:56:30.877Z,1009.32
2022-11-25T10:57:31.021Z,1009.31
2022-11-25T10:58:30.860Z,1009.31
2022-11-25T10:59:30.858Z,1009.28
2022-11-25T11:00:30.841Z,1009.28
2022-11-25T11:01:30.860Z,1009.27
2022-11-25T11:02:30.907Z,1009.27
2022-11-25T11:03:30.987Z,1009.27
2022-11-25T11:04:30.794Z,1009.28
2022-11-25T11:05:30.793Z,1009.28
2022-11-25T11:06:30.726Z,1009.28
2022-11-25T11:07:30.865Z,1009.28
2022-11-25T11:08:30.753Z,1009.27
2022-11-25T11:09:30.846Z,1009.27
2022-11-25T11:10:30.767Z,1009.27
2022-11-25T11:11:30.723Z,1009.24
2022-11-25T11:12:30.710Z,1009.24
2022-11-25T11:13:30.705Z,1009.25
2022-11-25T11:14:30.694Z,1009.26
2022-11-25T11:15:30.811Z,1009.26
2022-11-25T11:16:30.806Z,1009.27
2022-11-25T11:17:35.839Z,1009.26
2022-11-25T11:18:30.644Z,1009.27
2022-11-25T11:19:30.640Z,1009.27
2022-11-25T11:20:30.629Z,1009.26
2022-11-25T11:21:30.648Z,1009.27
2022-11-25T11:22:30.549Z,1009.25
2022-11-25T11:23:30.595Z,1009.26
2022-11-25T11:24:30.595Z,1009.26
2022-11-25T11:25:30.571Z,1009.26
2022-11-25T11:26:30.568Z,1009.25
2022-11-25T11:27:30.586Z,1009.25
2022-11-25T11:28:30.537Z,1009.24
2022-11-25T11:29:30.539Z,1009.24
2022-11-25T11:30:30.520Z,1009.22
2022-11-25T11:31:30.557Z,1009.22
2022-11-25T11:32:30.499Z,1009.22
2022-11-25T11:33:30.656Z,1009.22
2022-11-25T11:34:30.471Z,1009.22
2022-11-25T11:35:30.470Z,1009.25
2022-11-25T11:36:30.455Z,1009.24
2022-11-25T11:37:30.447Z,1009.27
2022-11-25T11:38:30.430Z,1009.27
2022-11-25T11:39:30.564Z,1009.28
2022-11-25T11:40:30.412Z,1009.29
2022-11-25T11:41:30.414Z,1009.28
2022-11-25T11:42:30.389Z,1009.30
2022-11-25T11:43:30.385Z,1009.30
2022-11-25T11:44:30.369Z,1009.30
2022-11-25T11:45:30.393Z,1009.32
2022-11-25T11:46:30.384Z,1009.33
2022-11-25T11:47:30.346Z,1009.32
2022-11-25T11:48:30.321Z,1009.32
2022-11-25T11:49:30.826Z,1009.32
2022-11-25T11:50:30.300Z,1009.31
2022-11-25T11:51:30.601Z,1009.28
2022-11-25T11:52:30.286Z,1009.27
2022-11-25T11:53:30.276Z,1009.27
2022-11-25T11:54:30.290Z,1009.28
2022-11-25T11:55:30.266Z,1009.29
2022-11-25T11:56:37.512Z,1009.30
2022-11-25T11:57:30.364Z,1009.29
2022-11-25T11:58:30.223Z,1009.30
2022-11-25T11:59:30.218Z,1009.29
2022-11-25T12:00:30.196Z,1009.28
2022-11-25T12:01:30.272Z,1009.28
2022-11-25T12:02:30.283Z,1009.29
2022-11-25T12:03:30.293Z,1009.30
2022-11-25T12:04:30.151Z,1009.31
2022-11-25T12:05:30.171Z,1009.32
2022-11-25T12:06:30.142Z,1009.33